sensor_id;sensor_type;location;lat;lon;timestamp;pressure;altitude;pressure_sealevel;temperature;humidity
19086;BME280;9675;51.538;6.728;2022-08-19T00:01:23;100959.34;;;24.34;73.23
19086;BME280;9675;51.538;6.728;2022-08-19T00:03:51;100948.81;;;24.31;73.37
19086;BME280;9675;51.538;6.728;2022-08-19T00:06:18;100951.47;;;24.28;73.35
19086;BME280;9675;51.538;6.728;2022-08-19T00:08:45;100947.94;;;24.26;73.65
19086;BME280;9675;51.538;6.728;2022-08-19T00:11:13;100957.63;;;24.24;73.42
19086;BME280;9675;51.538;6.728;2022-08-19T00:13:40;100961.13;;;24.21;73.87
19086;BME280;9675;51.538;6.728;2022-08-19T00:16:08;100955.91;;;24.18;74.11
19086;BME280;9675;51.538;6.728;2022-08-19T00:18:36;100963.75;;;24.15;74.50
19086;BME280;9675;51.538;6.728;2022-08-19T00:21:03;100960.25;;;24.11;74.61
19086;BME280;9675;51.538;6.728;2022-08-19T00:23:34;100961.19;;;24.09;74.55
19086;BME280;9675;51.538;6.728;2022-08-19T00:26:02;100967.31;;;24.06;74.86
19086;BME280;9675;51.538;6.728;2022-08-19T00:28:30;100967.34;;;24.03;74.76
19086;BME280;9675;51.538;6.728;2022-08-19T00:30:59;100960.31;;;24.02;75.01
19086;BME280;9675;51.538;6.728;2022-08-19T00:33:29;100957.66;;;23.99;75.08
19086;BME280;9675;51.538;6.728;2022-08-19T00:35:58;100948.03;;;23.95;75.79
19086;BME280;9675;51.538;6.728;2022-08-19T00:38:26;100949.81;;;23.93;76.21
19086;BME280;9675;51.538;6.728;2022-08-19T00:40:55;100949.81;;;23.90;76.45
19086;BME280;9675;51.538;6.728;2022-08-19T00:43:25;100942.81;;;23.86;76.34
19086;BME280;9675;51.538;6.728;2022-08-19T00:45:53;100939.31;;;23.84;76.32
19086;BME280;9675;51.538;6.728;2022-08-19T00:48:21;100941.97;;;23.83;76.69
19086;BME280;9675;51.538;6.728;2022-08-19T00:50:51;100941.97;;;23.81;76.53
19086;BME280;9675;51.538;6.728;2022-08-19T00:53:27;100948.13;;;23.77;77.20
19086;BME280;9675;51.538;6.728;2022-08-19T00:55:59;100953.38;;;23.74;77.25
19086;BME280;9675;51.538;6.728;2022-08-19T00:58:32;100949.88;;;23.72;77.75
19086;BME280;9675;51.538;6.728;2022-08-19T01:01:01;100946.38;;;23.68;77.95
19086;BME280;9675;51.538;6.728;2022-08-19T01:03:28;100947.25;;;23.66;78.01
19086;BME280;9675;51.538;6.728;2022-08-19T01:05:57;100949.00;;;23.64;78.19
19086;BME280;9675;51.538;6.728;2022-08-19T01:08:25;100952.53;;;23.61;77.92
19086;BME280;9675;51.538;6.728;2022-08-19T01:10:58;100942.88;;;23.59;78.48
19086;BME280;9675;51.538;6.728;2022-08-19T01:13:28;100939.41;;;23.55;79.05
19086;BME280;9675;51.538;6.728;2022-08-19T01:16:00;100941.13;;;23.53;79.08
19086;BME280;9675;51.538;6.728;2022-08-19T01:18:30;100941.16;;;23.50;79.14
19086;BME280;9675;51.538;6.728;2022-08-19T01:21:12;100942.03;;;23.48;79.36
19086;BME280;9675;51.538;6.728;2022-08-19T01:23:45;100941.13;;;23.44;79.67
19086;BME280;9675;51.538;6.728;2022-08-19T01:26:17;100949.91;;;23.42;79.54
19086;BME280;9675;51.538;6.728;2022-08-19T01:28:48;100953.41;;;23.41;79.54
19086;BME280;9675;51.538;6.728;2022-08-19T01:31:19;100948.13;;;23.38;79.59
19086;BME280;9675;51.538;6.728;2022-08-19T01:33:48;100950.78;;;23.35;80.05
19086;BME280;9675;51.538;6.728;2022-08-19T01:36:23;100956.91;;;23.34;80.42
19086;BME280;9675;51.538;6.728;2022-08-19T01:38:53;100956.03;;;23.30;80.73
19086;BME280;9675;51.538;6.728;2022-08-19T01:41:21;100944.63;;;23.26;81.01
19086;BME280;9675;51.538;6.728;2022-08-19T01:43:50;100942.03;;;23.25;81.25
19086;BME280;9675;51.538;6.728;2022-08-19T01:46:19;100942.88;;;23.22;81.05
19086;BME280;9675;51.538;6.728;2022-08-19T01:48:47;100937.66;;;23.19;80.88
19086;BME280;9675;51.538;6.728;2022-08-19T01:51:14;100937.63;;;23.18;81.23
19086;BME280;9675;51.538;6.728;2022-08-19T01:53:42;100954.31;;;23.15;81.72
19086;BME280;9675;51.538;6.728;2022-08-19T01:56:10;100955.16;;;23.11;81.64
19086;BME280;9675;51.538;6.728;2022-08-19T01:58:44;100951.66;;;23.09;82.30
19086;BME280;9675;51.538;6.728;2022-08-19T02:01:14;100950.78;;;23.07;82.62
19086;BME280;9675;51.538;6.728;2022-08-19T02:03:41;100952.53;;;23.05;82.12
19086;BME280;9675;51.538;6.728;2022-08-19T02:06:08;100957.78;;;23.04;82.51
19086;BME280;9675;51.538;6.728;2022-08-19T02:08:38;100954.28;;;23.00;82.91
19086;BME280;9675;51.538;6.728;2022-08-19T02:11:07;100953.41;;;22.98;82.76
19086;BME280;9675;51.538;6.728;2022-08-19T02:13:35;100949.88;;;22.96;83.46
19086;BME280;9675;51.538;6.728;2022-08-19T02:16:03;100942.03;;;22.95;83.71
19086;BME280;9675;51.538;6.728;2022-08-19T02:18:30;100949.00;;;22.91;83.65
19086;BME280;9675;51.538;6.728;2022-08-19T02:20:59;100939.41;;;22.90;84.13
19086;BME280;9675;51.538;6.728;2022-08-19T02:23:26;100939.38;;;22.87;83.75
19086;BME280;9675;51.538;6.728;2022-08-19T02:25:53;100940.28;;;22.84;84.33
19086;BME280;9675;51.538;6.728;2022-08-19T02:28:20;100949.88;;;22.81;84.30
19086;BME280;9675;51.538;6.728;2022-08-19T02:30:49;100949.91;;;22.79;84.67
19086;BME280;9675;51.538;6.728;2022-08-19T02:33:16;100952.50;;;22.76;84.74
19086;BME280;9675;51.538;6.728;2022-08-19T02:35:45;100960.38;;;22.75;85.11
19086;BME280;9675;51.538;6.728;2022-08-19T02:38:13;100962.13;;;22.73;85.41
19086;BME280;9675;51.538;6.728;2022-08-19T02:40:54;100962.06;;;22.70;85.30
19086;BME280;9675;51.538;6.728;2022-08-19T02:43:23;100969.09;;;22.69;85.36
19086;BME280;9675;51.538;6.728;2022-08-19T02:45:52;100960.31;;;22.66;86.03
19086;BME280;9675;51.538;6.728;2022-08-19T02:48:22;100962.09;;;22.64;86.39
19086;BME280;9675;51.538;6.728;2022-08-19T02:50:52;100958.56;;;22.62;86.26
19086;BME280;9675;51.538;6.728;2022-08-19T02:53:22;100964.66;;;22.59;86.77
19086;BME280;9675;51.538;6.728;2022-08-19T02:55:51;100949.81;;;22.57;87.28
19086;BME280;9675;51.538;6.728;2022-08-19T02:58:19;100952.41;;;22.55;87.25
19086;BME280;9675;51.538;6.728;2022-08-19T03:00:51;100955.94;;;22.53;87.76
19086;BME280;9675;51.538;6.728;2022-08-19T03:03:19;100955.91;;;22.51;87.58
19086;BME280;9675;51.538;6.728;2022-08-19T03:05:47;100968.16;;;22.49;87.86
19086;BME280;9675;51.538;6.728;2022-08-19T03:08:15;100963.78;;;22.46;88.25
19086;BME280;9675;51.538;6.728;2022-08-19T03:10:45;100955.00;;;22.44;88.42
19086;BME280;9675;51.538;6.728;2022-08-19T03:13:17;100967.28;;;22.42;88.51
19086;BME280;9675;51.538;6.728;2022-08-19T03:15:47;100966.41;;;22.42;89.15
19086;BME280;9675;51.538;6.728;2022-08-19T03:18:16;100960.22;;;22.38;89.42
19086;BME280;9675;51.538;6.728;2022-08-19T03:20:46;100967.25;;;22.36;89.56
19086;BME280;9675;51.538;6.728;2022-08-19T03:23:15;100963.72;;;22.34;90.05
19086;BME280;9675;51.538;6.728;2022-08-19T03:25:46;100962.84;;;22.31;90.35
19086;BME280;9675;51.538;6.728;2022-08-19T03:28:14;100955.84;;;22.30;90.59
19086;BME280;9675;51.538;6.728;2022-08-19T03:30:55;100957.59;;;22.29;90.73
19086;BME280;9675;51.538;6.728;2022-08-19T03:33:25;100960.22;;;22.26;91.14
19086;BME280;9675;51.538;6.728;2022-08-19T03:36:11;100950.56;;;22.24;92.01
19086;BME280;9675;51.538;6.728;2022-08-19T03:38:42;100954.94;;;22.20;92.41
19086;BME280;9675;51.538;6.728;2022-08-19T03:41:14;100954.06;;;22.20;92.49
19086;BME280;9675;51.538;6.728;2022-08-19T03:43:43;100952.31;;;22.17;92.28
19086;BME280;9675;51.538;6.728;2022-08-19T03:46:16;100956.69;;;22.17;93.23
19086;BME280;9675;51.538;6.728;2022-08-19T03:48:50;100957.50;;;22.13;93.88
19086;BME280;9675;51.538;6.728;2022-08-19T03:51:21;100961.03;;;22.12;93.50
19086;BME280;9675;51.538;6.728;2022-08-19T03:53:49;100963.63;;;22.10;93.48
19086;BME280;9675;51.538;6.728;2022-08-19T03:56:16;100961.00;;;22.07;93.70
19086;BME280;9675;51.538;6.728;2022-08-19T03:58:45;100954.88;;;22.05;93.98
19086;BME280;9675;51.538;6.728;2022-08-19T04:01:16;100953.13;;;22.04;94.26
19086;BME280;9675;51.538;6.728;2022-08-19T04:03:45;100948.75;;;22.01;95.13
19086;BME280;9675;51.538;6.728;2022-08-19T04:06:17;100955.72;;;21.99;94.73
19086;BME280;9675;51.538;6.728;2022-08-19T04:08:47;100953.06;;;21.98;94.77
19086;BME280;9675;51.538;6.728;2022-08-19T04:11:19;100960.09;;;21.96;95.12
19086;BME280;9675;51.538;6.728;2022-08-19T04:13:48;100955.66;;;21.93;95.05
19086;BME280;9675;51.538;6.728;2022-08-19T04:16:17;100951.28;;;21.91;95.77
19086;BME280;9675;51.538;6.728;2022-08-19T04:18:44;100956.50;;;21.89;95.58
19086;BME280;9675;51.538;6.728;2022-08-19T04:21:20;100949.50;;;21.87;96.89
19086;BME280;9675;51.538;6.728;2022-08-19T04:23:48;100958.25;;;21.86;96.32
19086;BME280;9675;51.538;6.728;2022-08-19T04:26:19;100958.22;;;21.83;96.57
19086;BME280;9675;51.538;6.728;2022-08-19T04:28:47;100953.84;;;21.80;96.97
19086;BME280;9675;51.538;6.728;2022-08-19T04:31:18;100958.22;;;21.80;96.65
19086;BME280;9675;51.538;6.728;2022-08-19T04:33:45;100956.44;;;21.77;96.96
19086;BME280;9675;51.538;6.728;2022-08-19T04:36:18;100957.31;;;21.75;98.04
19086;BME280;9675;51.538;6.728;2022-08-19T04:38:46;100951.16;;;21.73;98.90
19086;BME280;9675;51.538;6.728;2022-08-19T04:41:14;100946.78;;;21.70;99.02
19086;BME280;9675;51.538;6.728;2022-08-19T04:44:00;100956.41;;;21.70;99.10
19086;BME280;9675;51.538;6.728;2022-08-19T04:46:28;100967.72;;;21.67;99.51
19086;BME280;9675;51.538;6.728;2022-08-19T04:48:55;100965.97;;;21.65;99.66
19086;BME280;9675;51.538;6.728;2022-08-19T04:51:25;100969.44;;;21.62;99.92
19086;BME280;9675;51.538;6.728;2022-08-19T04:53:52;100979.94;;;21.60;100.00
19086;BME280;9675;51.538;6.728;2022-08-19T04:56:20;100975.56;;;21.59;100.00
19086;BME280;9675;51.538;6.728;2022-08-19T04:58:49;100978.16;;;21.58;100.00
19086;BME280;9675;51.538;6.728;2022-08-19T05:01:21;100994.75;;;21.57;100.00
19086;BME280;9675;51.538;6.728;2022-08-19T05:03:49;100999.97;;;21.55;100.00
19086;BME280;9675;51.538;6.728;2022-08-19T05:06:19;100990.38;;;21.54;100.00
19086;BME280;9675;51.538;6.728;2022-08-19T05:08:49;100992.09;;;21.52;100.00
19086;BME280;9675;51.538;6.728;2022-08-19T05:11:19;100997.34;;;21.52;100.00
19086;BME280;9675;51.538;6.728;2022-08-19T05:13:48;101002.56;;;21.49;100.00
19086;BME280;9675;51.538;6.728;2022-08-19T05:16:19;101009.53;;;21.47;100.00
19086;BME280;9675;51.538;6.728;2022-08-19T05:18:47;101007.75;;;21.46;100.00
19086;BME280;9675;51.538;6.728;2022-08-19T05:21:32;101006.91;;;21.47;100.00
19086;BME280;9675;51.538;6.728;2022-08-19T05:24:20;101015.63;;;21.45;100.00
19086;BME280;9675;51.538;6.728;2022-08-19T05:26:50;101014.75;;;21.43;100.00
19086;BME280;9675;51.538;6.728;2022-08-19T05:29:20;101015.63;;;21.43;100.00
19086;BME280;9675;51.538;6.728;2022-08-19T05:31:48;101025.19;;;21.41;100.00
19086;BME280;9675;51.538;6.728;2022-08-19T05:34:17;101016.44;;;21.41;100.00
19086;BME280;9675;51.538;6.728;2022-08-19T05:36:50;101014.69;;;21.38;100.00
19086;BME280;9675;51.538;6.728;2022-08-19T05:39:27;101012.09;;;21.38;100.00
19086;BME280;9675;51.538;6.728;2022-08-19T05:41:58;101010.31;;;21.37;100.00
19086;BME280;9675;51.538;6.728;2022-08-19T05:44:28;101010.31;;;21.37;100.00
19086;BME280;9675;51.538;6.728;2022-08-19T05:46:58;101011.19;;;21.38;100.00
19086;BME280;9675;51.538;6.728;2022-08-19T05:49:26;101009.44;;;21.37;100.00
19086;BME280;9675;51.538;6.728;2022-08-19T05:51:54;101008.56;;;21.36;100.00
19086;BME280;9675;51.538;6.728;2022-08-19T05:54:24;101005.94;;;21.36;100.00
19086;BME280;9675;51.538;6.728;2022-08-19T05:56:52;101011.16;;;21.35;100.00
19086;BME280;9675;51.538;6.728;2022-08-19T05:59:20;101015.56;;;21.34;100.00
19086;BME280;9675;51.538;6.728;2022-08-19T06:01:51;101013.78;;;21.33;100.00
19086;BME280;9675;51.538;6.728;2022-08-19T06:04:21;101028.63;;;21.33;100.00
19086;BME280;9675;51.538;6.728;2022-08-19T06:06:51;101019.03;;;21.33;100.00
19086;BME280;9675;51.538;6.728;2022-08-19T06:09:21;101017.25;;;21.32;100.00
19086;BME280;9675;51.538;6.728;2022-08-19T06:11:52;101018.16;;;21.34;100.00
19086;BME280;9675;51.538;6.728;2022-08-19T06:14:24;101016.41;;;21.33;100.00
19086;BME280;9675;51.538;6.728;2022-08-19T06:16:51;101015.56;;;21.34;100.00
19086;BME280;9675;51.538;6.728;2022-08-19T06:19:21;101014.66;;;21.35;100.00
19086;BME280;9675;51.538;6.728;2022-08-19T06:21:52;101012.03;;;21.35;100.00
19086;BME280;9675;51.538;6.728;2022-08-19T06:24:23;101014.69;;;21.38;100.00
19086;BME280;9675;51.538;6.728;2022-08-19T06:26:54;101012.97;;;21.39;100.00
19086;BME280;9675;51.538;6.728;2022-08-19T06:29:24;101010.34;;;21.40;100.00
19086;BME280;9675;51.538;6.728;2022-08-19T06:31:55;101006.84;;;21.41;100.00
19086;BME280;9675;51.538;6.728;2022-08-19T06:34:23;101018.25;;;21.43;100.00
19086;BME280;9675;51.538;6.728;2022-08-19T06:36:53;101011.25;;;21.45;100.00
19086;BME280;9675;51.538;6.728;2022-08-19T06:39:23;101012.16;;;21.47;100.00
19086;BME280;9675;51.538;6.728;2022-08-19T06:41:55;101015.66;;;21.49;100.00
19086;BME280;9675;51.538;6.728;2022-08-19T06:44:27;101010.44;;;21.52;100.00
19086;BME280;9675;51.538;6.728;2022-08-19T06:46:55;101014.84;;;21.56;100.00
19086;BME280;9675;51.538;6.728;2022-08-19T06:49:23;101015.72;;;21.58;100.00
19086;BME280;9675;51.538;6.728;2022-08-19T06:51:54;101015.75;;;21.61;100.00
19086;BME280;9675;51.538;6.728;2022-08-19T06:54:22;101019.28;;;21.63;100.00
19086;BME280;9675;51.538;6.728;2022-08-19T06:56:51;101023.63;;;21.66;100.00
19086;BME280;9675;51.538;6.728;2022-08-19T06:59:22;101028.03;;;21.69;100.00
19086;BME280;9675;51.538;6.728;2022-08-19T07:01:56;101023.69;;;21.72;100.00
19086;BME280;9675;51.538;6.728;2022-08-19T07:04:29;101021.09;;;21.74;100.00
19086;BME280;9675;51.538;6.728;2022-08-19T07:07:00;101018.47;;;21.77;100.00
19086;BME280;9675;51.538;6.728;2022-08-19T07:09:28;101023.75;;;21.80;100.00
19086;BME280;9675;51.538;6.728;2022-08-19T07:11:57;101026.38;;;21.83;100.00
19086;BME280;9675;51.538;6.728;2022-08-19T07:14:26;101034.28;;;21.86;100.00
19086;BME280;9675;51.538;6.728;2022-08-19T07:16:56;101029.91;;;21.88;100.00
19086;BME280;9675;51.538;6.728;2022-08-19T07:19:26;101037.81;;;21.91;100.00
19086;BME280;9675;51.538;6.728;2022-08-19T07:21:55;101027.38;;;21.94;100.00
19086;BME280;9675;51.538;6.728;2022-08-19T07:24:24;101038.75;;;21.99;100.00
19086;BME280;9675;51.538;6.728;2022-08-19T07:26:58;101038.81;;;22.02;100.00
19086;BME280;9675;51.538;6.728;2022-08-19T07:29:27;101032.69;;;22.08;100.00
19086;BME280;9675;51.538;6.728;2022-08-19T07:31:56;101038.84;;;22.11;100.00
19086;BME280;9675;51.538;6.728;2022-08-19T07:34:25;101037.97;;;22.14;100.00
19086;BME280;9675;51.538;6.728;2022-08-19T07:36:54;101043.25;;;22.20;100.00
19086;BME280;9675;51.538;6.728;2022-08-19T07:39:24;101045.91;;;22.24;100.00
19086;BME280;9675;51.538;6.728;2022-08-19T07:41:52;101051.19;;;22.30;100.00
19086;BME280;9675;51.538;6.728;2022-08-19T07:44:22;101059.09;;;22.36;100.00
19086;BME280;9675;51.538;6.728;2022-08-19T07:46:54;101067.88;;;22.41;100.00
19086;BME280;9675;51.538;6.728;2022-08-19T07:49:23;101053.00;;;22.46;100.00
19086;BME280;9675;51.538;6.728;2022-08-19T07:51:55;101053.06;;;22.53;100.00
19086;BME280;9675;51.538;6.728;2022-08-19T07:54:25;101061.81;;;22.59;100.00
19086;BME280;9675;51.538;6.728;2022-08-19T07:56:54;101059.22;;;22.65;100.00
19086;BME280;9675;51.538;6.728;2022-08-19T07:59:23;101063.63;;;22.71;100.00
19086;BME280;9675;51.538;6.728;2022-08-19T08:01:51;101071.53;;;22.77;100.00
19086;BME280;9675;51.538;6.728;2022-08-19T08:04:19;101069.81;;;22.83;100.00
19086;BME280;9675;51.538;6.728;2022-08-19T08:07:06;101069.84;;;22.94;100.00
19086;BME280;9675;51.538;6.728;2022-08-19T08:09:51;101069.84;;;23.02;100.00
19086;BME280;9675;51.538;6.728;2022-08-19T08:12:24;101076.91;;;23.10;100.00
19086;BME280;9675;51.538;6.728;2022-08-19T08:14:58;101075.16;;;23.17;100.00
19086;BME280;9675;51.538;6.728;2022-08-19T08:17:29;101080.44;;;23.26;100.00
19086;BME280;9675;51.538;6.728;2022-08-19T08:19:57;101080.44;;;23.34;100.00
19086;BME280;9675;51.538;6.728;2022-08-19T08:22:26;101074.31;;;23.41;100.00
19086;BME280;9675;51.538;6.728;2022-08-19T08:25:14;101084.00;;;23.49;100.00
19086;BME280;9675;51.538;6.728;2022-08-19T08:27:44;101087.50;;;23.54;100.00
19086;BME280;9675;51.538;6.728;2022-08-19T08:30:17;101091.00;;;23.59;100.00
19086;BME280;9675;51.538;6.728;2022-08-19T08:32:45;101090.13;;;23.68;100.00
19086;BME280;9675;51.538;6.728;2022-08-19T08:35:16;101088.38;;;23.76;100.00
19086;BME280;9675;51.538;6.728;2022-08-19T08:37:44;101091.88;;;23.84;100.00
19086;BME280;9675;51.538;6.728;2022-08-19T08:40:20;101091.88;;;23.90;100.00
19086;BME280;9675;51.538;6.728;2022-08-19T08:42:55;101100.63;;;23.95;98.65
19086;BME280;9675;51.538;6.728;2022-08-19T08:45:29;101102.41;;;24.02;98.76
19086;BME280;9675;51.538;6.728;2022-08-19T08:48:04;101088.34;;;24.06;97.07
19086;BME280;9675;51.538;6.728;2022-08-19T08:50:43;101090.09;;;24.13;95.62
19086;BME280;9675;51.538;6.728;2022-08-19T08:53:17;101094.50;;;24.19;93.96
19086;BME280;9675;51.538;6.728;2022-08-19T08:55:45;101098.00;;;24.24;92.43
19086;BME280;9675;51.538;6.728;2022-08-19T08:58:20;101091.84;;;24.28;90.50
19086;BME280;9675;51.538;6.728;2022-08-19T09:00:52;101091.84;;;24.33;88.60
19086;BME280;9675;51.538;6.728;2022-08-19T09:03:22;101089.19;;;24.39;88.67
19086;BME280;9675;51.538;6.728;2022-08-19T09:05:59;101094.41;;;24.46;86.77
19086;BME280;9675;51.538;6.728;2022-08-19T09:08:40;101082.13;;;24.51;85.10
19086;BME280;9675;51.538;6.728;2022-08-19T09:11:19;101086.50;;;24.54;84.48
19086;BME280;9675;51.538;6.728;2022-08-19T09:14:06;101084.72;;;24.59;84.95
19086;BME280;9675;51.538;6.728;2022-08-19T09:16:37;101086.47;;;24.65;83.42
19086;BME280;9675;51.538;6.728;2022-08-19T09:19:08;101080.28;;;24.72;82.62
19086;BME280;9675;51.538;6.728;2022-08-19T09:21:36;101082.88;;;24.79;80.41
19086;BME280;9675;51.538;6.728;2022-08-19T09:24:05;101080.22;;;24.84;79.21
19086;BME280;9675;51.538;6.728;2022-08-19T09:26:33;101083.75;;;24.92;78.51
19086;BME280;9675;51.538;6.728;2022-08-19T09:29:01;101080.16;;;24.97;78.97
19086;BME280;9675;51.538;6.728;2022-08-19T09:31:31;101084.53;;;25.03;77.16
19086;BME280;9675;51.538;6.728;2022-08-19T09:34:00;101088.03;;;25.10;76.13
19086;BME280;9675;51.538;6.728;2022-08-19T09:36:31;101087.06;;;25.18;76.47
19086;BME280;9675;51.538;6.728;2022-08-19T09:38:59;101087.03;;;25.24;75.74
19086;BME280;9675;51.538;6.728;2022-08-19T09:41:27;101079.09;;;25.29;75.84
19086;BME280;9675;51.538;6.728;2022-08-19T09:43:57;101080.84;;;25.33;74.58
19086;BME280;9675;51.538;6.728;2022-08-19T09:46:28;101083.44;;;25.37;73.61
19086;BME280;9675;51.538;6.728;2022-08-19T09:49:01;101090.41;;;25.46;73.38
19086;BME280;9675;51.538;6.728;2022-08-19T09:51:32;101075.47;;;25.48;72.75
19086;BME280;9675;51.538;6.728;2022-08-19T09:54:01;101086.00;;;25.48;71.32
19086;BME280;9675;51.538;6.728;2022-08-19T09:56:31;101078.06;;;25.50;72.04
19086;BME280;9675;51.538;6.728;2022-08-19T09:59:00;101087.72;;;25.52;71.97
19086;BME280;9675;51.538;6.728;2022-08-19T10:01:30;101080.69;;;25.57;71.47
19086;BME280;9675;51.538;6.728;2022-08-19T10:04:01;101088.56;;;25.63;70.75
19086;BME280;9675;51.538;6.728;2022-08-19T10:06:30;101079.72;;;25.69;69.39
19086;BME280;9675;51.538;6.728;2022-08-19T10:08:59;101084.03;;;25.76;69.70
19086;BME280;9675;51.538;6.728;2022-08-19T10:11:26;101087.50;;;25.83;68.89
19086;BME280;9675;51.538;6.728;2022-08-19T10:13:54;101080.41;;;25.88;68.27
19086;BME280;9675;51.538;6.728;2022-08-19T10:16:23;101081.25;;;25.94;68.04
19086;BME280;9675;51.538;6.728;2022-08-19T10:18:52;101081.19;;;25.97;67.52
19086;BME280;9675;51.538;6.728;2022-08-19T10:21:25;101080.31;;;26.00;66.34
19086;BME280;9675;51.538;6.728;2022-08-19T10:23:55;101092.63;;;26.01;66.74
19086;BME280;9675;51.538;6.728;2022-08-19T10:26:26;101079.38;;;26.04;67.36
19086;BME280;9675;51.538;6.728;2022-08-19T10:28:54;101075.81;;;26.06;67.23
19086;BME280;9675;51.538;6.728;2022-08-19T10:31:24;101069.66;;;26.07;66.71
19086;BME280;9675;51.538;6.728;2022-08-19T10:33:52;101069.66;;;26.09;66.26
19086;BME280;9675;51.538;6.728;2022-08-19T10:36:28;101067.03;;;26.09;66.03
19086;BME280;9675;51.538;6.728;2022-08-19T10:38:59;101070.50;;;26.12;65.79
19086;BME280;9675;51.538;6.728;2022-08-19T10:41:31;101071.31;;;26.19;65.48
19086;BME280;9675;51.538;6.728;2022-08-19T10:44:02;101066.84;;;26.27;65.24
19086;BME280;9675;51.538;6.728;2022-08-19T10:46:32;101050.09;;;26.31;64.53
19086;BME280;9675;51.538;6.728;2022-08-19T10:49:02;101044.69;;;26.40;64.22
19086;BME280;9675;51.538;6.728;2022-08-19T10:51:32;101049.03;;;26.47;63.71
19086;BME280;9675;51.538;6.728;2022-08-19T10:54:17;101055.06;;;26.55;63.48
19086;BME280;9675;51.538;6.728;2022-08-19T10:56:44;101056.75;;;26.61;61.75
19086;BME280;9675;51.538;6.728;2022-08-19T10:59:23;101068.03;;;26.74;61.01
19086;BME280;9675;51.538;6.728;2022-08-19T11:01:57;101051.22;;;26.81;61.09
19086;BME280;9675;51.538;6.728;2022-08-19T11:04:25;101044.94;;;26.91;59.85
19086;BME280;9675;51.538;6.728;2022-08-19T11:06:54;101042.13;;;27.03;59.60
19086;BME280;9675;51.538;6.728;2022-08-19T11:09:26;101042.78;;;27.16;61.24
19086;BME280;9675;51.538;6.728;2022-08-19T11:11:56;101042.69;;;27.23;58.43
19086;BME280;9675;51.538;6.728;2022-08-19T11:14:24;101044.28;;;27.33;57.92
19086;BME280;9675;51.538;6.728;2022-08-19T11:16:52;101045.00;;;27.44;56.83
19086;BME280;9675;51.538;6.728;2022-08-19T11:19:22;101041.38;;;27.52;56.09
19086;BME280;9675;51.538;6.728;2022-08-19T11:21:52;101033.22;;;27.64;55.77
19086;BME280;9675;51.538;6.728;2022-08-19T11:24:23;101043.56;;;27.77;55.41
19086;BME280;9675;51.538;6.728;2022-08-19T11:26:53;101039.91;;;27.86;55.26
19086;BME280;9675;51.538;6.728;2022-08-19T11:29:23;101033.63;;;27.90;55.78
19086;BME280;9675;51.538;6.728;2022-08-19T11:31:53;101043.22;;;27.97;55.06
19086;BME280;9675;51.538;6.728;2022-08-19T11:34:23;101048.34;;;28.05;53.96
19086;BME280;9675;51.538;6.728;2022-08-19T11:36:55;101057.00;;;28.16;53.67
19086;BME280;9675;51.538;6.728;2022-08-19T11:39:25;101044.44;;;28.27;53.67
19086;BME280;9675;51.538;6.728;2022-08-19T11:41:53;101043.31;;;28.39;52.65
19086;BME280;9675;51.538;6.728;2022-08-19T11:44:20;101039.56;;;28.49;52.67
19086;BME280;9675;51.538;6.728;2022-08-19T11:46:47;101046.44;;;28.57;52.95
19086;BME280;9675;51.538;6.728;2022-08-19T11:49:17;101048.00;;;28.67;51.77
19086;BME280;9675;51.538;6.728;2022-08-19T11:51:46;101041.69;;;28.75;52.09
19086;BME280;9675;51.538;6.728;2022-08-19T11:54:17;101042.38;;;28.84;50.98
19086;BME280;9675;51.538;6.728;2022-08-19T11:56:44;101034.28;;;28.90;51.15
19086;BME280;9675;51.538;6.728;2022-08-19T11:59:13;101037.69;;;28.95;51.07
19086;BME280;9675;51.538;6.728;2022-08-19T12:01:40;101039.34;;;29.01;50.24
19086;BME280;9675;51.538;6.728;2022-08-19T12:04:08;101036.56;;;29.05;50.36
19086;BME280;9675;51.538;6.728;2022-08-19T12:06:39;101038.25;;;29.09;49.75
19086;BME280;9675;51.538;6.728;2022-08-19T12:09:09;101030.13;;;29.17;49.53
19086;BME280;9675;51.538;6.728;2022-08-19T12:11:39;101029.94;;;29.23;49.44
19086;BME280;9675;51.538;6.728;2022-08-19T12:14:09;101035.97;;;29.31;48.91
19086;BME280;9675;51.538;6.728;2022-08-19T12:16:37;101027.75;;;29.42;48.91
19086;BME280;9675;51.538;6.728;2022-08-19T12:19:05;101028.38;;;29.53;48.63
19086;BME280;9675;51.538;6.728;2022-08-19T12:21:35;101029.88;;;29.63;48.21
19086;BME280;9675;51.538;6.728;2022-08-19T12:24:05;101026.13;;;29.70;48.28
19086;BME280;9675;51.538;6.728;2022-08-19T12:26:33;101023.44;;;29.72;47.60
19086;BME280;9675;51.538;6.728;2022-08-19T12:29:02;101020.66;;;29.76;46.61
19086;BME280;9675;51.538;6.728;2022-08-19T12:31:30;101018.69;;;29.84;46.65
19086;BME280;9675;51.538;6.728;2022-08-19T12:33:58;101014.84;;;29.96;46.45
19086;BME280;9675;51.538;6.728;2022-08-19T12:36:28;101012.91;;;30.01;46.59
19086;BME280;9675;51.538;6.728;2022-08-19T12:38:58;101019.84;;;30.07;46.34
19086;BME280;9675;51.538;6.728;2022-08-19T12:41:26;101014.38;;;30.13;45.78
19086;BME280;9675;51.538;6.728;2022-08-19T12:43:53;101005.22;;;30.23;45.69
19086;BME280;9675;51.538;6.728;2022-08-19T12:46:24;101021.00;;;30.29;45.59
19086;BME280;9675;51.538;6.728;2022-08-19T12:48:51;101009.31;;;30.34;44.73
19086;BME280;9675;51.538;6.728;2022-08-19T12:51:19;101006.34;;;30.45;44.50
19086;BME280;9675;51.538;6.728;2022-08-19T12:53:47;101004.28;;;30.56;44.82
19086;BME280;9675;51.538;6.728;2022-08-19T12:56:16;101010.22;;;30.64;43.71
19086;BME280;9675;51.538;6.728;2022-08-19T12:58:44;101004.69;;;30.72;43.98
19086;BME280;9675;51.538;6.728;2022-08-19T13:01:14;101010.66;;;30.78;44.00
19086;BME280;9675;51.538;6.728;2022-08-19T13:03:46;101003.41;;;30.83;43.12
19086;BME280;9675;51.538;6.728;2022-08-19T13:06:14;101001.47;;;30.89;43.07
19086;BME280;9675;51.538;6.728;2022-08-19T13:08:41;100991.47;;;30.97;43.02
19086;BME280;9675;51.538;6.728;2022-08-19T13:11:13;100993.88;;;31.06;42.42
19086;BME280;9675;51.538;6.728;2022-08-19T13:13:42;100994.59;;;31.11;42.30